Bear Valley Springs, California
Current Conditions -  °F | °C
As of 4:15 AM on Friday 21 Nov 2014 (Local Time) from KTSP Reporting Station
Overcast Overcast  
Wind Chill: 36°   Ceiling: 600
Heat Index: 43°   Visibility: 7mi
Dew Point: 43°   Wind: 14mph
Humidity: 100%   Direction: 300°WNW
Pressure: 29.99"   Gusts: 26mph
Location:  35.1338°N, 118.552°W
Report Text: KTSP 211215Z AUTO 30012G23KT 7SM BKN006 BKN013 OVC025 06/06 A2999 RMK AO2
Loading
Personal Weather Stations






























Interactive Weather Map New forecast layout! Learn more

10-Day Weather Forecast

Advertisements
Track Severe Weather on mobile